<?xml version="1.0" encoding="UTF-8" standalone="no" ?>
<gpx xmlns="http://www.topografix.com/GPX/1/1" xmlns:xsi="http://www.w3.org/2001/XMLSchema-instance" xsi:schemaLocation="http://www.topografix.com/GPX/1/1 http://www.topografix.com/GPX/1/1/gpx.xsd" version="1.1" creator="VisuGPX - https://www.visugpx.com">
  <metadata>
    <name>Rando LN</name>
  </metadata>
  <trk>
    <name><![CDATA[St-Côme-d'Olt]]></name>
    <extensions>
      <line xmlns="http://www.topografix.com/GPX/gpx_style/0/2">
        <color>00ffee</color>
        <width>4</width>
      </line>
    </extensions>
    <trkseg>
      <trkpt lat="44.52244" lon="2.76286">
        <ele>342.664</ele>
        <time>2020-03-06T17:17:23Z</time>
      </trkpt>
      <trkpt lat="44.52244" lon="2.76286">
        <ele>342.664</ele>
        <time>2020-03-06T17:17:23Z</time>
      </trkpt>
      <trkpt lat="44.52244" lon="2.76286">
        <ele>342.664</ele>
        <time>2020-03-06T17:17:23Z</time>
      </trkpt>
      <trkpt lat="44.52244" lon="2.76286">
        <ele>342.664</ele>
        <time>2020-03-06T17:17:23Z</time>
      </trkpt>
      <trkpt lat="44.52244" lon="2.76286">
        <ele>342.664</ele>
        <time>2020-03-06T17:17:23Z</time>
      </trkpt>
      <trkpt lat="44.52244" lon="2.76286">
        <ele>342.676</ele>
        <time>2020-03-06T17:17:23Z</time>
      </trkpt>
      <trkpt lat="44.52216" lon="2.76336">
        <ele>345.247</ele>
        <time>2020-03-06T17:17:43Z</time>
      </trkpt>
      <trkpt lat="44.522" lon="2.7633">
        <ele>346.773</ele>
        <time>2020-03-06T17:18:03Z</time>
      </trkpt>
      <trkpt lat="44.52118" lon="2.7643">
        <ele>343.375</ele>
        <time>2015-08-05T16:04:17Z</time>
      </trkpt>
      <trkpt lat="44.52114" lon="2.76505">
        <ele>339.549</ele>
        <time>2015-08-05T16:04:37Z</time>
      </trkpt>
      <trkpt lat="44.5217" lon="2.76733">
        <ele>345.202</ele>
        <time>2015-08-05T16:04:57Z</time>
      </trkpt>
      <trkpt lat="44.52227" lon="2.76837">
        <ele>340.222</ele>
        <time>2015-08-05T16:05:17Z</time>
      </trkpt>
      <trkpt lat="44.52267" lon="2.76977">
        <ele>334.008</ele>
        <time>2015-08-05T16:05:37Z</time>
      </trkpt>
      <trkpt lat="44.52271" lon="2.77045">
        <ele>337.64</ele>
        <time>2015-08-05T16:05:57Z</time>
      </trkpt>
      <trkpt lat="44.52289" lon="2.77113">
        <ele>339.585</ele>
        <time>2015-08-05T16:06:17Z</time>
      </trkpt>
      <trkpt lat="44.52263" lon="2.772">
        <ele>338.665</ele>
        <time>2015-08-05T16:06:37Z</time>
      </trkpt>
      <trkpt lat="44.52191" lon="2.77304">
        <ele>338.037</ele>
        <time>2015-08-05T16:06:57Z</time>
      </trkpt>
      <trkpt lat="44.52143" lon="2.77321">
        <ele>341.349</ele>
        <time>2015-08-05T16:07:17Z</time>
      </trkpt>
      <trkpt lat="44.52127" lon="2.77308">
        <ele>341.51</ele>
        <time>2015-08-05T16:07:37Z</time>
      </trkpt>
      <trkpt lat="44.52101" lon="2.77309">
        <ele>340.976</ele>
        <time>2015-08-05T16:07:57Z</time>
      </trkpt>
      <trkpt lat="44.52002" lon="2.77223">
        <ele>337.038</ele>
        <time>2015-08-05T16:08:17Z</time>
      </trkpt>
      <trkpt lat="44.51815" lon="2.77221">
        <ele>340.336</ele>
        <time>2015-08-05T16:08:37Z</time>
      </trkpt>
      <trkpt lat="44.51782" lon="2.77181">
        <ele>344.517</ele>
        <time>2015-08-05T16:08:57Z</time>
      </trkpt>
      <trkpt lat="44.51762" lon="2.77227">
        <ele>346.118</ele>
        <time>2015-08-05T16:09:17Z</time>
      </trkpt>
      <trkpt lat="44.51723" lon="2.77264">
        <ele>349.308</ele>
        <time>2015-08-05T16:09:37Z</time>
      </trkpt>
      <trkpt lat="44.51707" lon="2.77379">
        <ele>358.149</ele>
        <time>2015-08-05T16:09:57Z</time>
      </trkpt>
      <trkpt lat="44.51681" lon="2.77428">
        <ele>363.124</ele>
        <time>2015-08-05T16:10:17Z</time>
      </trkpt>
      <trkpt lat="44.5168" lon="2.77478">
        <ele>367.814</ele>
        <time>2015-08-05T16:10:37Z</time>
      </trkpt>
      <trkpt lat="44.51658" lon="2.77533">
        <ele>375.166</ele>
        <time>2015-08-05T16:10:57Z</time>
      </trkpt>
      <trkpt lat="44.51605" lon="2.77574">
        <ele>392.568</ele>
        <time>2015-08-05T16:11:17Z</time>
      </trkpt>
      <trkpt lat="44.51593" lon="2.77576">
        <ele>397.189</ele>
        <time>2015-08-05T16:11:37Z</time>
      </trkpt>
      <trkpt lat="44.51572" lon="2.77563">
        <ele>403.515</ele>
        <time>2015-08-05T16:11:57Z</time>
      </trkpt>
      <trkpt lat="44.51579" lon="2.77611">
        <ele>412.437</ele>
        <time>2015-08-05T16:12:17Z</time>
      </trkpt>
      <trkpt lat="44.51568" lon="2.77622">
        <ele>419.015</ele>
        <time>2015-08-05T16:12:37Z</time>
      </trkpt>
      <trkpt lat="44.51547" lon="2.77595">
        <ele>421.165</ele>
        <time>2015-08-05T16:12:57Z</time>
      </trkpt>
      <trkpt lat="44.51528" lon="2.77584">
        <ele>428.111</ele>
        <time>2015-08-05T16:13:17Z</time>
      </trkpt>
      <trkpt lat="44.51504" lon="2.77592">
        <ele>434.008</ele>
        <time>2015-08-05T16:13:37Z</time>
      </trkpt>
      <trkpt lat="44.51491" lon="2.77607">
        <ele>437.747</ele>
        <time>2015-08-05T16:13:57Z</time>
      </trkpt>
      <trkpt lat="44.51481" lon="2.77648">
        <ele>444.752</ele>
        <time>2015-08-05T16:14:17Z</time>
      </trkpt>
      <trkpt lat="44.51522" lon="2.77634">
        <ele>442.222</ele>
        <time>2015-08-05T16:14:37Z</time>
      </trkpt>
      <trkpt lat="44.51531" lon="2.77693">
        <ele>458.264</ele>
        <time>2015-08-05T16:14:57Z</time>
      </trkpt>
      <trkpt lat="44.51532" lon="2.77755">
        <ele>469.396</ele>
        <time>2015-08-05T16:15:17Z</time>
      </trkpt>
      <trkpt lat="44.51524" lon="2.77815">
        <ele>476.577</ele>
        <time>2015-08-05T16:15:37Z</time>
      </trkpt>
      <trkpt lat="44.51506" lon="2.77875">
        <ele>478.793</ele>
        <time>2015-08-05T16:15:57Z</time>
      </trkpt>
      <trkpt lat="44.51516" lon="2.77924">
        <ele>480.385</ele>
        <time>2015-08-05T16:16:17Z</time>
      </trkpt>
      <trkpt lat="44.5153" lon="2.77957">
        <ele>480.589</ele>
        <time>2015-08-05T16:16:37Z</time>
      </trkpt>
      <trkpt lat="44.51537" lon="2.77996">
        <ele>479.406</ele>
        <time>2015-08-05T16:16:57Z</time>
      </trkpt>
      <trkpt lat="44.51556" lon="2.78019">
        <ele>479.926</ele>
        <time>2015-08-05T16:17:17Z</time>
      </trkpt>
      <trkpt lat="44.51576" lon="2.78021">
        <ele>477.808</ele>
        <time>2015-08-05T16:17:37Z</time>
      </trkpt>
      <trkpt lat="44.51599" lon="2.78035">
        <ele>475.544</ele>
        <time>2015-08-05T16:17:57Z</time>
      </trkpt>
      <trkpt lat="44.51619" lon="2.78054">
        <ele>474.119</ele>
        <time>2015-08-05T16:18:17Z</time>
      </trkpt>
      <trkpt lat="44.51644" lon="2.7808">
        <ele>468.669</ele>
        <time>2015-08-05T16:18:37Z</time>
      </trkpt>
      <trkpt lat="44.51624" lon="2.78097">
        <ele>472.251</ele>
        <time>2015-08-05T16:18:57Z</time>
      </trkpt>
      <trkpt lat="44.51593" lon="2.78091">
        <ele>475.633</ele>
        <time>2015-08-05T16:19:17Z</time>
      </trkpt>
      <trkpt lat="44.51571" lon="2.78107">
        <ele>476.344</ele>
        <time>2015-08-05T16:19:37Z</time>
      </trkpt>
      <trkpt lat="44.51466" lon="2.78169">
        <ele>467.97</ele>
        <time>2015-08-05T16:19:57Z</time>
      </trkpt>
      <trkpt lat="44.51483" lon="2.78219">
        <ele>464.962</ele>
        <time>2015-08-05T16:20:17Z</time>
      </trkpt>
      <trkpt lat="44.51471" lon="2.78252">
        <ele>466.069</ele>
        <time>2015-08-05T16:20:37Z</time>
      </trkpt>
      <trkpt lat="44.51444" lon="2.78273">
        <ele>467.404</ele>
        <time>2015-08-05T16:20:57Z</time>
      </trkpt>
      <trkpt lat="44.51415" lon="2.78319">
        <ele>463.824</ele>
        <time>2015-08-05T16:21:17Z</time>
      </trkpt>
      <trkpt lat="44.51387" lon="2.78349">
        <ele>456.008</ele>
        <time>2015-08-05T16:21:37Z</time>
      </trkpt>
      <trkpt lat="44.5131" lon="2.78367">
        <ele>450.132</ele>
        <time>2020-03-06T17:36:03Z</time>
      </trkpt>
      <trkpt lat="44.51238" lon="2.78369">
        <ele>449.877</ele>
        <time>2015-08-05T16:21:57Z</time>
      </trkpt>
      <trkpt lat="44.5122" lon="2.78403">
        <ele>445.077</ele>
        <time>2015-08-05T16:22:17Z</time>
      </trkpt>
      <trkpt lat="44.51202" lon="2.7842">
        <ele>444.779</ele>
        <time>2015-08-05T16:22:37Z</time>
      </trkpt>
      <trkpt lat="44.512" lon="2.78433">
        <ele>442.371</ele>
        <time>2015-08-05T16:22:57Z</time>
      </trkpt>
      <trkpt lat="44.51211" lon="2.78435">
        <ele>439.552</ele>
        <time>2015-08-05T16:23:17Z</time>
      </trkpt>
      <trkpt lat="44.51189" lon="2.78455">
        <ele>439.048</ele>
        <time>2015-08-05T16:23:37Z</time>
      </trkpt>
      <trkpt lat="44.51134" lon="2.78456">
        <ele>442.22</ele>
        <time>2015-08-05T16:23:57Z</time>
      </trkpt>
      <trkpt lat="44.51086" lon="2.78552">
        <ele>446.844</ele>
        <time>2015-08-05T16:24:17Z</time>
      </trkpt>
      <trkpt lat="44.51042" lon="2.78576">
        <ele>449.105</ele>
        <time>2015-08-05T16:24:37Z</time>
      </trkpt>
      <trkpt lat="44.51027" lon="2.78597">
        <ele>450.915</ele>
        <time>2015-08-05T16:24:57Z</time>
      </trkpt>
      <trkpt lat="44.51012" lon="2.78608">
        <ele>450.308</ele>
        <time>2015-08-05T16:25:17Z</time>
      </trkpt>
      <trkpt lat="44.50969" lon="2.78651">
        <ele>449.25</ele>
        <time>2015-08-05T16:25:37Z</time>
      </trkpt>
      <trkpt lat="44.50906" lon="2.78684">
        <ele>452.295</ele>
        <time>2015-08-05T16:25:57Z</time>
      </trkpt>
      <trkpt lat="44.50827" lon="2.78687">
        <ele>463.445</ele>
        <time>2015-08-05T16:26:17Z</time>
      </trkpt>
      <trkpt lat="44.50784" lon="2.78667">
        <ele>469.047</ele>
        <time>2015-08-05T16:26:37Z</time>
      </trkpt>
      <trkpt lat="44.50697" lon="2.78647">
        <ele>476.419</ele>
        <time>2015-08-05T16:26:57Z</time>
      </trkpt>
      <trkpt lat="44.50641" lon="2.78597">
        <ele>483.75</ele>
        <time>2015-08-05T16:27:17Z</time>
      </trkpt>
      <trkpt lat="44.50595" lon="2.78483">
        <ele>483.366</ele>
        <time>2015-08-05T16:27:37Z</time>
      </trkpt>
      <trkpt lat="44.50525" lon="2.78506">
        <ele>483.728</ele>
        <time>2015-08-05T16:27:57Z</time>
      </trkpt>
      <trkpt lat="44.50511" lon="2.78523">
        <ele>485.663</ele>
        <time>2015-08-05T16:28:17Z</time>
      </trkpt>
      <trkpt lat="44.50486" lon="2.78592">
        <ele>495.444</ele>
        <time>2015-08-05T16:28:37Z</time>
      </trkpt>
      <trkpt lat="44.50469" lon="2.78631">
        <ele>502.518</ele>
        <time>2015-08-05T16:28:57Z</time>
      </trkpt>
      <trkpt lat="44.50457" lon="2.7867">
        <ele>506.708</ele>
        <time>2015-08-05T16:29:17Z</time>
      </trkpt>
      <trkpt lat="44.50437" lon="2.78821">
        <ele>512.312</ele>
        <time>2015-08-05T16:29:37Z</time>
      </trkpt>
      <trkpt lat="44.50394" lon="2.78946">
        <ele>519.447</ele>
        <time>2015-08-05T16:29:57Z</time>
      </trkpt>
      <trkpt lat="44.50362" lon="2.79048">
        <ele>522.047</ele>
        <time>2015-08-05T16:30:17Z</time>
      </trkpt>
      <trkpt lat="44.5033" lon="2.79186">
        <ele>522.489</ele>
        <time>2015-08-05T16:30:37Z</time>
      </trkpt>
      <trkpt lat="44.50341" lon="2.79208">
        <ele>521.181</ele>
        <time>2015-08-05T16:30:57Z</time>
      </trkpt>
      <trkpt lat="44.50345" lon="2.79236">
        <ele>517.972</ele>
        <time>2015-08-05T16:31:17Z</time>
      </trkpt>
      <trkpt lat="44.50356" lon="2.79235">
        <ele>514.988</ele>
        <time>2015-08-05T16:31:37Z</time>
      </trkpt>
      <trkpt lat="44.50396" lon="2.79146">
        <ele>510.14</ele>
        <time>2015-08-05T16:31:57Z</time>
      </trkpt>
      <trkpt lat="44.50433" lon="2.79097">
        <ele>511.423</ele>
        <time>2015-08-05T16:32:17Z</time>
      </trkpt>
      <trkpt lat="44.50477" lon="2.79071">
        <ele>506.083</ele>
        <time>2015-08-05T16:32:37Z</time>
      </trkpt>
      <trkpt lat="44.50481" lon="2.79077">
        <ele>503.511</ele>
        <time>2015-08-05T16:32:57Z</time>
      </trkpt>
      <trkpt lat="44.50455" lon="2.7911">
        <ele>501.608</ele>
        <time>2015-08-05T16:33:17Z</time>
      </trkpt>
      <trkpt lat="44.50442" lon="2.79146">
        <ele>494.358</ele>
        <time>2015-08-05T16:33:37Z</time>
      </trkpt>
      <trkpt lat="44.50445" lon="2.79209">
        <ele>480.863</ele>
        <time>2015-08-05T16:33:57Z</time>
      </trkpt>
      <trkpt lat="44.50462" lon="2.79284">
        <ele>467.843</ele>
        <time>2015-08-05T16:34:17Z</time>
      </trkpt>
      <trkpt lat="44.5047" lon="2.79305">
        <ele>460.965</ele>
        <time>2015-08-05T16:34:37Z</time>
      </trkpt>
      <trkpt lat="44.50481" lon="2.79347">
        <ele>450.957</ele>
        <time>2015-08-05T16:34:57Z</time>
      </trkpt>
      <trkpt lat="44.50464" lon="2.79414">
        <ele>447.978</ele>
        <time>2015-08-05T16:35:17Z</time>
      </trkpt>
      <trkpt lat="44.50463" lon="2.79465">
        <ele>442.264</ele>
        <time>2015-08-05T16:35:37Z</time>
      </trkpt>
      <trkpt lat="44.50489" lon="2.79527">
        <ele>431.096</ele>
        <time>2015-08-05T16:35:57Z</time>
      </trkpt>
      <trkpt lat="44.50571" lon="2.79616">
        <ele>426.469</ele>
        <time>2015-08-05T16:36:17Z</time>
      </trkpt>
      <trkpt lat="44.50616" lon="2.797">
        <ele>421.104</ele>
        <time>2015-08-05T16:36:37Z</time>
      </trkpt>
      <trkpt lat="44.50633" lon="2.79772">
        <ele>415.024</ele>
        <time>2015-08-05T16:36:57Z</time>
      </trkpt>
      <trkpt lat="44.50632" lon="2.79869">
        <ele>401.408</ele>
        <time>2015-08-05T16:37:17Z</time>
      </trkpt>
      <trkpt lat="44.50605" lon="2.79947">
        <ele>396.612</ele>
        <time>2015-08-05T16:37:37Z</time>
      </trkpt>
      <trkpt lat="44.50612" lon="2.79995">
        <ele>389.097</ele>
        <time>2015-08-05T16:37:57Z</time>
      </trkpt>
      <trkpt lat="44.50627" lon="2.80031">
        <ele>385.147</ele>
        <time>2015-08-05T16:38:17Z</time>
      </trkpt>
      <trkpt lat="44.50659" lon="2.80032">
        <ele>379.369</ele>
        <time>2015-08-05T16:38:37Z</time>
      </trkpt>
      <trkpt lat="44.5068" lon="2.80171">
        <ele>359.821</ele>
        <time>2015-08-05T16:38:57Z</time>
      </trkpt>
      <trkpt lat="44.50674" lon="2.80214">
        <ele>354.092</ele>
        <time>2015-08-05T16:39:17Z</time>
      </trkpt>
      <trkpt lat="44.50668" lon="2.8025">
        <ele>352.028</ele>
        <time>2015-08-05T16:39:37Z</time>
      </trkpt>
      <trkpt lat="44.50716" lon="2.8034">
        <ele>352.48</ele>
        <time>2015-08-05T16:39:57Z</time>
      </trkpt>
      <trkpt lat="44.50726" lon="2.80376">
        <ele>352.651</ele>
        <time>2015-08-05T16:40:17Z</time>
      </trkpt>
      <trkpt lat="44.50719" lon="2.80501">
        <ele>360.401</ele>
        <time>2015-08-05T16:40:37Z</time>
      </trkpt>
      <trkpt lat="44.50731" lon="2.80563">
        <ele>358.811</ele>
        <time>2015-08-05T16:40:57Z</time>
      </trkpt>
      <trkpt lat="44.50833" lon="2.80792">
        <ele>350.008</ele>
        <time>2015-08-05T16:41:17Z</time>
      </trkpt>
      <trkpt lat="44.50862" lon="2.80827">
        <ele>349.221</ele>
        <time>2015-08-05T16:41:37Z</time>
      </trkpt>
      <trkpt lat="44.50905" lon="2.80853">
        <ele>349.016</ele>
        <time>2015-08-05T16:41:57Z</time>
      </trkpt>
      <trkpt lat="44.51025" lon="2.80974">
        <ele>348.956</ele>
        <time>2015-08-05T16:42:17Z</time>
      </trkpt>
      <trkpt lat="44.51196" lon="2.81495">
        <ele>350.038</ele>
        <time>2015-08-05T16:42:37Z</time>
      </trkpt>
      <trkpt lat="44.51227" lon="2.81617">
        <ele>349.01</ele>
        <time>2015-08-05T16:42:57Z</time>
      </trkpt>
      <trkpt lat="44.5136" lon="2.81661">
        <ele>353.851</ele>
        <time>2015-08-05T16:43:17Z</time>
      </trkpt>
      <trkpt lat="44.51408" lon="2.81653">
        <ele>362.957</ele>
        <time>2015-08-05T16:43:37Z</time>
      </trkpt>
      <trkpt lat="44.51438" lon="2.81548">
        <ele>370.619</ele>
        <time>2015-08-05T16:43:57Z</time>
      </trkpt>
      <trkpt lat="44.51464" lon="2.81495">
        <ele>372.243</ele>
        <time>2020-03-06T17:58:43Z</time>
      </trkpt>
      <trkpt lat="44.51489" lon="2.81512">
        <ele>374.664</ele>
        <time>2020-03-06T17:59:03Z</time>
      </trkpt>
      <trkpt lat="44.51498" lon="2.81494">
        <ele>374.81</ele>
        <time>2020-03-06T17:59:23Z</time>
      </trkpt>
      <trkpt lat="44.51514" lon="2.81494">
        <ele>376.008</ele>
        <time>2020-03-06T17:59:43Z</time>
      </trkpt>
      <trkpt lat="44.51519" lon="2.81522">
        <ele>377.26</ele>
        <time>2020-03-06T18:00:03Z</time>
      </trkpt>
      <trkpt lat="44.51551" lon="2.81537">
        <ele>377.785</ele>
        <time>2020-03-06T18:00:23Z</time>
      </trkpt>
      <trkpt lat="44.51554" lon="2.81557">
        <ele>377.085</ele>
        <time>2015-08-05T16:45:17Z</time>
      </trkpt>
      <trkpt lat="44.51569" lon="2.81592">
        <ele>375.567</ele>
        <time>2015-08-05T16:45:37Z</time>
      </trkpt>
      <trkpt lat="44.51621" lon="2.81651">
        <ele>369.229</ele>
        <time>2015-08-05T16:45:57Z</time>
      </trkpt>
      <trkpt lat="44.5165" lon="2.81657">
        <ele>367.37</ele>
        <time>2015-08-05T16:46:17Z</time>
      </trkpt>
      <trkpt lat="44.51652" lon="2.81717">
        <ele>367.046</ele>
        <time>2015-08-05T16:46:37Z</time>
      </trkpt>
      <trkpt lat="44.51694" lon="2.81725">
        <ele>370.288</ele>
        <time>2015-08-05T16:46:57Z</time>
      </trkpt>
      <trkpt lat="44.51743" lon="2.81797">
        <ele>376.691</ele>
        <time>2015-08-05T16:47:17Z</time>
      </trkpt>
      <trkpt lat="44.51783" lon="2.81929">
        <ele>382.881</ele>
        <time>2015-08-05T16:47:37Z</time>
      </trkpt>
    </trkseg>
  </trk>
</gpx>